sensor_id;sensor_type;location;lat;lon;timestamp;pressure;altitude;pressure_sealevel;temperature;humidity
22580;BME280;11456;47.030;15.396;2022-11-30T00:00:19;98026.03;;;4.20;88.65
22580;BME280;11456;47.030;15.396;2022-11-30T00:02:46;98023.97;;;4.11;88.68
22580;BME280;11456;47.030;15.396;2022-11-30T00:05:14;98036.00;;;4.03;89.86
22580;BME280;11456;47.030;15.396;2022-11-30T00:07:41;98031.69;;;4.28;89.00
22580;BME280;11456;47.030;15.396;2022-11-30T00:10:08;98016.44;;;4.30;88.83
22580;BME280;11456;47.030;15.396;2022-11-30T00:12:34;98024.00;;;4.36;88.04
22580;BME280;11456;47.030;15.396;2022-11-30T00:15:01;98027.06;;;4.17;88.35
22580;BME280;11456;47.030;15.396;2022-11-30T00:17:27;98029.53;;;4.08;88.95
22580;BME280;11456;47.030;15.396;2022-11-30T00:19:54;98031.34;;;4.07;89.72
22580;BME280;11456;47.030;15.396;2022-11-30T00:22:20;98020.56;;;4.09;89.59
22580;BME280;11456;47.030;15.396;2022-11-30T00:24:47;98017.91;;;4.09;89.86
22580;BME280;11456;47.030;15.396;2022-11-30T00:27:14;98019.06;;;4.17;89.80
22580;BME280;11456;47.030;15.396;2022-11-30T00:29:40;98018.88;;;4.20;89.86
22580;BME280;11456;47.030;15.396;2022-11-30T00:32:07;98012.28;;;4.26;90.04
22580;BME280;11456;47.030;15.396;2022-11-30T00:34:33;98014.63;;;4.30;90.51
22580;BME280;11456;47.030;15.396;2022-11-30T00:37:00;98010.47;;;4.26;90.50
22580;BME280;11456;47.030;15.396;2022-11-30T00:39:26;98014.94;;;4.26;90.82
22580;BME280;11456;47.030;15.396;2022-11-30T00:42:00;98017.81;;;4.23;90.96
22580;BME280;11456;47.030;15.396;2022-11-30T00:44:27;98018.47;;;4.26;90.41
22580;BME280;11456;47.030;15.396;2022-11-30T00:46:53;98019.09;;;4.30;90.76
22580;BME280;11456;47.030;15.396;2022-11-30T00:49:20;98019.44;;;4.38;89.74
22580;BME280;11456;47.030;15.396;2022-11-30T00:51:46;98010.16;;;4.31;89.84
22580;BME280;11456;47.030;15.396;2022-11-30T00:54:13;98018.47;;;4.39;89.76
22580;BME280;11456;47.030;15.396;2022-11-30T00:56:39;98016.75;;;4.25;89.73
22580;BME280;11456;47.030;15.396;2022-11-30T00:59:06;98015.03;;;4.24;90.52
22580;BME280;11456;47.030;15.396;2022-11-30T01:01:32;98024.50;;;4.03;90.92
22580;BME280;11456;47.030;15.396;2022-11-30T01:03:59;98021.81;;;3.90;91.74
22580;BME280;11456;47.030;15.396;2022-11-30T01:06:25;98025.84;;;3.83;92.22
22580;BME280;11456;47.030;15.396;2022-11-30T01:08:51;98025.69;;;4.12;91.92
22580;BME280;11456;47.030;15.396;2022-11-30T01:11:22;98025.47;;;4.02;91.74
22580;BME280;11456;47.030;15.396;2022-11-30T01:13:49;98019.06;;;4.04;91.87
22580;BME280;11456;47.030;15.396;2022-11-30T01:16:17;98018.84;;;3.95;92.69
22580;BME280;11456;47.030;15.396;2022-11-30T01:18:45;98018.44;;;4.14;92.19
22580;BME280;11456;47.030;15.396;2022-11-30T01:21:12;98012.03;;;4.16;91.82
22580;BME280;11456;47.030;15.396;2022-11-30T01:23:39;98016.31;;;4.19;91.75
22580;BME280;11456;47.030;15.396;2022-11-30T01:26:06;98014.41;;;4.21;91.49
22580;BME280;11456;47.030;15.396;2022-11-30T01:28:35;98018.22;;;4.17;91.71
22580;BME280;11456;47.030;15.396;2022-11-30T01:31:02;98013.56;;;4.20;91.92
22580;BME280;11456;47.030;15.396;2022-11-30T01:33:29;98024.13;;;4.22;91.66
22580;BME280;11456;47.030;15.396;2022-11-30T01:36:00;98024.72;;;4.13;91.08
22580;BME280;11456;47.030;15.396;2022-11-30T01:38:30;98026.22;;;4.17;90.90
22580;BME280;11456;47.030;15.396;2022-11-30T01:40:57;98021.47;;;4.22;90.76
22580;BME280;11456;47.030;15.396;2022-11-30T01:46:11;98030.81;;;4.15;90.65
22580;BME280;11456;47.030;15.396;2022-11-30T01:48:43;98032.59;;;4.01;90.82
22580;BME280;11456;47.030;15.396;2022-11-30T01:51:09;98036.28;;;3.86;91.83
22580;BME280;11456;47.030;15.396;2022-11-30T01:53:36;98027.16;;;3.90;92.49
22580;BME280;11456;47.030;15.396;2022-11-30T01:56:02;98028.75;;;4.06;92.72
22580;BME280;11456;47.030;15.396;2022-11-30T01:58:29;98029.63;;;4.06;92.04
22580;BME280;11456;47.030;15.396;2022-11-30T02:00:56;98024.19;;;4.08;91.71
22580;BME280;11456;47.030;15.396;2022-11-30T02:03:25;98014.16;;;4.11;92.02
22580;BME280;11456;47.030;15.396;2022-11-30T02:05:54;98029.72;;;4.04;91.94
22580;BME280;11456;47.030;15.396;2022-11-30T02:08:21;98030.53;;;3.92;92.08
22580;BME280;11456;47.030;15.396;2022-11-30T02:10:50;98037.56;;;3.93;92.44
22580;BME280;11456;47.030;15.396;2022-11-30T02:16:09;98033.41;;;3.89;91.51
22580;BME280;11456;47.030;15.396;2022-11-30T02:31:33;98012.31;;;3.59;93.81
22580;BME280;11456;47.030;15.396;2022-11-30T02:34:01;98001.78;;;3.58;94.19
22580;BME280;11456;47.030;15.396;2022-11-30T02:36:28;98005.72;;;3.65;93.70
22580;BME280;11456;47.030;15.396;2022-11-30T02:38:55;98004.81;;;3.79;92.82
22580;BME280;11456;47.030;15.396;2022-11-30T02:41:23;98007.91;;;3.85;91.31
22580;BME280;11456;47.030;15.396;2022-11-30T02:43:49;98004.53;;;3.83;91.42
22580;BME280;11456;47.030;15.396;2022-11-30T02:46:28;98002.66;;;4.11;91.07
22580;BME280;11456;47.030;15.396;2022-11-30T02:49:02;98009.09;;;4.33;89.76
22580;BME280;11456;47.030;15.396;2022-11-30T02:51:31;98013.56;;;4.33;88.71
22580;BME280;11456;47.030;15.396;2022-11-30T02:53:59;98013.13;;;4.14;88.74
22580;BME280;11456;47.030;15.396;2022-11-30T02:56:25;98004.81;;;4.31;88.19
22580;BME280;11456;47.030;15.396;2022-11-30T02:58:52;98008.66;;;4.14;88.67
22580;BME280;11456;47.030;15.396;2022-11-30T03:01:18;98008.72;;;4.13;88.93
22580;BME280;11456;47.030;15.396;2022-11-30T03:03:45;98007.56;;;4.17;88.69
22580;BME280;11456;47.030;15.396;2022-11-30T03:06:11;98011.81;;;4.07;89.12
22580;BME280;11456;47.030;15.396;2022-11-30T03:08:38;97998.59;;;4.18;89.08
22580;BME280;11456;47.030;15.396;2022-11-30T03:11:04;98005.56;;;4.20;89.01
22580;BME280;11456;47.030;15.396;2022-11-30T03:13:32;98005.47;;;4.22;88.62
22580;BME280;11456;47.030;15.396;2022-11-30T03:16:08;98008.44;;;4.30;88.19
22580;BME280;11456;47.030;15.396;2022-11-30T03:18:35;98009.94;;;4.34;87.74
22580;BME280;11456;47.030;15.396;2022-11-30T03:21:06;98009.09;;;4.46;87.41
22580;BME280;11456;47.030;15.396;2022-11-30T03:23:33;98001.31;;;4.43;86.68
22580;BME280;11456;47.030;15.396;2022-11-30T03:26:00;98011.66;;;4.35;86.75
22580;BME280;11456;47.030;15.396;2022-11-30T03:28:27;98012.47;;;4.23;87.06
22580;BME280;11456;47.030;15.396;2022-11-30T03:30:53;98017.63;;;4.26;87.10
22580;BME280;11456;47.030;15.396;2022-11-30T03:33:20;98015.91;;;4.25;86.57
22580;BME280;11456;47.030;15.396;2022-11-30T03:35:47;98012.59;;;4.21;86.83
22580;BME280;11456;47.030;15.396;2022-11-30T03:38:13;98017.81;;;4.23;86.85
22580;BME280;11456;47.030;15.396;2022-11-30T03:40:40;98013.47;;;4.22;86.71
22580;BME280;11456;47.030;15.396;2022-11-30T03:43:06;98019.06;;;4.17;87.10
22580;BME280;11456;47.030;15.396;2022-11-30T03:45:33;98011.00;;;4.31;87.41
22580;BME280;11456;47.030;15.396;2022-11-30T03:47:59;98018.47;;;4.39;87.75
22580;BME280;11456;47.030;15.396;2022-11-30T03:50:25;98014.88;;;4.40;87.33
22580;BME280;11456;47.030;15.396;2022-11-30T03:52:52;98023.06;;;4.37;87.37
22580;BME280;11456;47.030;15.396;2022-11-30T03:55:18;98018.47;;;4.26;87.52
22580;BME280;11456;47.030;15.396;2022-11-30T03:57:45;98022.50;;;4.19;87.80
22580;BME280;11456;47.030;15.396;2022-11-30T04:00:11;98013.56;;;4.33;87.27
22580;BME280;11456;47.030;15.396;2022-11-30T04:02:38;98021.03;;;4.28;87.90
22580;BME280;11456;47.030;15.396;2022-11-30T04:05:10;98010.78;;;4.22;87.59
22580;BME280;11456;47.030;15.396;2022-11-30T04:07:36;98024.13;;;4.22;87.07
22580;BME280;11456;47.030;15.396;2022-11-30T04:10:03;98029.09;;;4.14;86.93
22580;BME280;11456;47.030;15.396;2022-11-30T04:12:34;98023.13;;;4.23;87.44
22580;BME280;11456;47.030;15.396;2022-11-30T04:15:00;98013.75;;;4.30;87.38
22580;BME280;11456;47.030;15.396;2022-11-30T04:17:26;98015.72;;;4.40;86.88
22580;BME280;11456;47.030;15.396;2022-11-30T04:19:53;98022.34;;;4.35;85.97
22580;BME280;11456;47.030;15.396;2022-11-30T04:22:19;98019.94;;;4.18;86.20
22580;BME280;11456;47.030;15.396;2022-11-30T04:24:46;98023.13;;;4.10;85.73
22580;BME280;11456;47.030;15.396;2022-11-30T04:27:13;98014.59;;;4.18;85.71
22580;BME280;11456;47.030;15.396;2022-11-30T04:29:39;98011.19;;;4.03;86.50
22580;BME280;11456;47.030;15.396;2022-11-30T04:32:06;98021.75;;;4.17;86.39
22580;BME280;11456;47.030;15.396;2022-11-30T04:34:32;98014.75;;;4.29;85.53
22580;BME280;11456;47.030;15.396;2022-11-30T04:36:59;98015.72;;;4.40;85.08
22580;BME280;11456;47.030;15.396;2022-11-30T04:39:26;98012.91;;;4.42;85.21
22580;BME280;11456;47.030;15.396;2022-11-30T04:41:52;98023.13;;;4.23;86.57
22580;BME280;11456;47.030;15.396;2022-11-30T04:44:19;98015.06;;;4.37;86.95
22580;BME280;11456;47.030;15.396;2022-11-30T04:46:45;98026.38;;;4.28;86.74
22580;BME280;11456;47.030;15.396;2022-11-30T04:49:12;98021.66;;;4.19;87.69
22580;BME280;11456;47.030;15.396;2022-11-30T04:51:38;98024.66;;;4.27;88.30
22580;BME280;11456;47.030;15.396;2022-11-30T04:54:05;98028.38;;;4.37;88.44
22580;BME280;11456;47.030;15.396;2022-11-30T04:56:31;98032.78;;;4.38;88.59
22580;BME280;11456;47.030;15.396;2022-11-30T04:58:57;98046.19;;;4.36;88.44
22580;BME280;11456;47.030;15.396;2022-11-30T05:01:25;98044.09;;;4.54;88.61
22580;BME280;11456;47.030;15.396;2022-11-30T05:03:52;98052.66;;;4.59;88.63
22580;BME280;11456;47.030;15.396;2022-11-30T05:06:18;98057.28;;;4.30;90.54
22580;BME280;11456;47.030;15.396;2022-11-30T05:08:45;98066.47;;;4.39;90.17
22580;BME280;11456;47.030;15.396;2022-11-30T05:11:11;98062.84;;;4.40;90.28
22580;BME280;11456;47.030;15.396;2022-11-30T05:13:38;98065.53;;;4.40;90.59
22580;BME280;11456;47.030;15.396;2022-11-30T05:16:05;98067.59;;;4.10;91.41
22580;BME280;11456;47.030;15.396;2022-11-30T05:18:31;98079.72;;;4.01;92.65
22580;BME280;11456;47.030;15.396;2022-11-30T05:20:58;98073.47;;;4.15;92.84
22580;BME280;11456;47.030;15.396;2022-11-30T05:23:25;98072.97;;;3.95;93.41
22580;BME280;11456;47.030;15.396;2022-11-30T05:25:51;98079.44;;;4.18;93.75
22580;BME280;11456;47.030;15.396;2022-11-30T05:28:18;98076.94;;;4.02;93.07
22580;BME280;11456;47.030;15.396;2022-11-30T05:30:44;98073.16;;;3.92;93.35
22580;BME280;11456;47.030;15.396;2022-11-30T05:33:11;98077.19;;;3.85;93.20
22580;BME280;11456;47.030;15.396;2022-11-30T05:35:37;98062.97;;;3.99;92.73
22580;BME280;11456;47.030;15.396;2022-11-30T05:38:04;98066.78;;;3.95;92.80
22580;BME280;11456;47.030;15.396;2022-11-30T05:40:31;98065.00;;;3.95;92.81
22580;BME280;11456;47.030;15.396;2022-11-30T05:42:59;98070.25;;;4.10;92.81
22580;BME280;11456;47.030;15.396;2022-11-30T05:45:26;98075.19;;;4.16;92.62
22580;BME280;11456;47.030;15.396;2022-11-30T05:47:53;98072.66;;;4.00;92.50
22580;BME280;11456;47.030;15.396;2022-11-30T05:50:19;98079.22;;;4.09;92.33
22580;BME280;11456;47.030;15.396;2022-11-30T05:52:51;98075.16;;;4.03;91.83
22580;BME280;11456;47.030;15.396;2022-11-30T05:55:17;98080.56;;;4.41;90.75
22580;BME280;11456;47.030;15.396;2022-11-30T05:57:44;98081.19;;;4.32;89.67
22580;BME280;11456;47.030;15.396;2022-11-30T06:00:10;98080.50;;;4.16;90.90
22580;BME280;11456;47.030;15.396;2022-11-30T06:02:37;98078.00;;;4.00;91.64
22580;BME280;11456;47.030;15.396;2022-11-30T06:05:04;98076.50;;;3.96;91.22
22580;BME280;11456;47.030;15.396;2022-11-30T06:07:31;98078.63;;;4.03;91.11
22580;BME280;11456;47.030;15.396;2022-11-30T06:09:57;98075.38;;;4.13;91.29
22580;BME280;11456;47.030;15.396;2022-11-30T06:12:24;98074.50;;;4.12;92.35
22580;BME280;11456;47.030;15.396;2022-11-30T06:14:50;98080.94;;;4.10;92.56
22580;BME280;11456;47.030;15.396;2022-11-30T06:17:17;98077.50;;;4.08;93.42
22580;BME280;11456;47.030;15.396;2022-11-30T06:19:43;98078.34;;;4.08;93.70
22580;BME280;11456;47.030;15.396;2022-11-30T06:22:10;98086.34;;;4.08;94.08
22580;BME280;11456;47.030;15.396;2022-11-30T06:24:36;98088.34;;;4.04;94.04
22580;BME280;11456;47.030;15.396;2022-11-30T06:27:03;98090.69;;;3.96;93.83
22580;BME280;11456;47.030;15.396;2022-11-30T06:29:29;98092.63;;;4.07;94.44
22580;BME280;11456;47.030;15.396;2022-11-30T06:31:56;98090.81;;;4.08;94.29
22580;BME280;11456;47.030;15.396;2022-11-30T06:34:22;98095.19;;;4.09;94.23
22580;BME280;11456;47.030;15.396;2022-11-30T06:36:49;98092.38;;;3.97;94.80
22580;BME280;11456;47.030;15.396;2022-11-30T06:39:15;98098.97;;;3.92;95.27
22580;BME280;11456;47.030;15.396;2022-11-30T06:42:02;98106.91;;;4.06;95.86
22580;BME280;11456;47.030;15.396;2022-11-30T06:44:28;98099.03;;;4.17;95.29
22580;BME280;11456;47.030;15.396;2022-11-30T06:46:55;98100.38;;;3.71;96.70
22580;BME280;11456;47.030;15.396;2022-11-30T06:49:21;98105.91;;;3.94;97.07
22580;BME280;11456;47.030;15.396;2022-11-30T06:51:48;98108.16;;;4.00;96.53
22580;BME280;11456;47.030;15.396;2022-11-30T06:54:14;98114.16;;;3.77;97.19
22580;BME280;11456;47.030;15.396;2022-11-30T06:56:41;98114.56;;;3.57;98.37
22580;BME280;11456;47.030;15.396;2022-11-30T06:59:07;98111.31;;;3.66;99.22
22580;BME280;11456;47.030;15.396;2022-11-30T07:01:34;98113.44;;;3.88;98.01
22580;BME280;11456;47.030;15.396;2022-11-30T07:04:00;98122.84;;;3.93;97.71
22580;BME280;11456;47.030;15.396;2022-11-30T07:06:26;98118.44;;;4.07;97.12
22580;BME280;11456;47.030;15.396;2022-11-30T07:08:53;98122.53;;;4.25;96.58
22580;BME280;11456;47.030;15.396;2022-11-30T07:11:19;98124.44;;;4.23;96.24
22580;BME280;11456;47.030;15.396;2022-11-30T07:13:46;98122.53;;;4.25;96.22
22580;BME280;11456;47.030;15.396;2022-11-30T07:16:13;98124.75;;;3.91;96.74
22580;BME280;11456;47.030;15.396;2022-11-30T07:18:39;98120.94;;;3.95;98.09
22580;BME280;11456;47.030;15.396;2022-11-30T07:21:06;98127.00;;;3.97;97.79
22580;BME280;11456;47.030;15.396;2022-11-30T07:23:33;98129.94;;;4.07;98.50
22580;BME280;11456;47.030;15.396;2022-11-30T07:26:22;98129.53;;;4.13;98.35
22580;BME280;11456;47.030;15.396;2022-11-30T07:28:49;98123.16;;;4.16;98.03
22580;BME280;11456;47.030;15.396;2022-11-30T07:33:46;98127.38;;;4.06;98.02
22580;BME280;11456;47.030;15.396;2022-11-30T07:36:13;98127.19;;;4.09;98.07
22580;BME280;11456;47.030;15.396;2022-11-30T07:38:40;98125.47;;;4.08;98.42
22580;BME280;11456;47.030;15.396;2022-11-30T07:41:07;98126.00;;;4.13;98.34
22580;BME280;11456;47.030;15.396;2022-11-30T07:43:33;98131.03;;;4.17;98.32
22580;BME280;11456;47.030;15.396;2022-11-30T07:46:00;98134.81;;;4.00;98.21
22580;BME280;11456;47.030;15.396;2022-11-30T07:48:27;98131.06;;;3.90;98.56
22580;BME280;11456;47.030;15.396;2022-11-30T07:50:54;98139.75;;;4.07;99.02
22580;BME280;11456;47.030;15.396;2022-11-30T07:53:20;98130.81;;;4.08;99.40
22580;BME280;11456;47.030;15.396;2022-11-30T07:55:47;98135.59;;;4.42;99.20
22580;BME280;11456;47.030;15.396;2022-11-30T07:58:20;98132.38;;;4.37;98.39
22580;BME280;11456;47.030;15.396;2022-11-30T08:00:47;98134.75;;;4.41;98.87
22580;BME280;11456;47.030;15.396;2022-11-30T08:03:13;98138.81;;;4.47;98.92
22580;BME280;11456;47.030;15.396;2022-11-30T08:05:40;98140.50;;;4.48;97.37
22580;BME280;11456;47.030;15.396;2022-11-30T08:08:06;98134.72;;;4.29;97.85
22580;BME280;11456;47.030;15.396;2022-11-30T08:10:33;98139.75;;;4.33;98.30
22580;BME280;11456;47.030;15.396;2022-11-30T08:12:59;98132.81;;;4.43;98.50
22580;BME280;11456;47.030;15.396;2022-11-30T08:15:26;98126.59;;;4.30;97.97
22580;BME280;11456;47.030;15.396;2022-11-30T08:17:59;98127.28;;;4.34;98.23
22580;BME280;11456;47.030;15.396;2022-11-30T08:20:30;98133.03;;;4.40;96.93
22580;BME280;11456;47.030;15.396;2022-11-30T08:22:57;98127.09;;;4.23;97.82
22580;BME280;11456;47.030;15.396;2022-11-30T08:25:23;98123.41;;;4.25;98.45
22580;BME280;11456;47.030;15.396;2022-11-30T08:27:50;98121.31;;;4.43;98.26
22580;BME280;11456;47.030;15.396;2022-11-30T08:30:16;98131.97;;;4.43;97.75
22580;BME280;11456;47.030;15.396;2022-11-30T08:32:43;98126.25;;;4.74;96.62
22580;BME280;11456;47.030;15.396;2022-11-30T08:35:09;98124.44;;;4.62;95.48
22580;BME280;11456;47.030;15.396;2022-11-30T08:37:36;98121.34;;;4.68;95.99
22580;BME280;11456;47.030;15.396;2022-11-30T08:40:03;98124.84;;;4.56;95.17
22580;BME280;11456;47.030;15.396;2022-11-30T08:42:30;98128.97;;;4.35;94.78
22580;BME280;11456;47.030;15.396;2022-11-30T08:44:56;98131.00;;;4.44;95.75
22580;BME280;11456;47.030;15.396;2022-11-30T08:47:23;98126.50;;;4.97;92.05
22580;BME280;11456;47.030;15.396;2022-11-30T08:49:50;98134.00;;;5.17;91.28
22580;BME280;11456;47.030;15.396;2022-11-30T08:52:17;98127.13;;;4.88;92.46
22580;BME280;11456;47.030;15.396;2022-11-30T08:54:44;98133.19;;;5.65;89.79
22580;BME280;11456;47.030;15.396;2022-11-30T08:57:13;98134.19;;;5.14;90.33
22580;BME280;11456;47.030;15.396;2022-11-30T08:59:40;98147.75;;;4.73;91.51
22580;BME280;11456;47.030;15.396;2022-11-30T09:02:07;98140.03;;;4.68;92.60
22580;BME280;11456;47.030;15.396;2022-11-30T09:04:34;98144.09;;;4.74;93.75
22580;BME280;11456;47.030;15.396;2022-11-30T09:07:01;98144.97;;;4.35;93.95
22580;BME280;11456;47.030;15.396;2022-11-30T09:09:28;98154.03;;;4.72;94.83
22580;BME280;11456;47.030;15.396;2022-11-30T09:11:55;98152.75;;;4.77;94.74
22580;BME280;11456;47.030;15.396;2022-11-30T09:14:21;98143.81;;;5.04;93.36
22580;BME280;11456;47.030;15.396;2022-11-30T09:16:48;98144.66;;;4.79;95.06
22580;BME280;11456;47.030;15.396;2022-11-30T09:19:14;98151.03;;;4.76;96.50
22580;BME280;11456;47.030;15.396;2022-11-30T09:21:41;98143.72;;;4.93;95.76
22580;BME280;11456;47.030;15.396;2022-11-30T09:24:16;98141.66;;;4.83;95.52
22580;BME280;11456;47.030;15.396;2022-11-30T09:26:43;98134.00;;;4.92;96.47
22580;BME280;11456;47.030;15.396;2022-11-30T09:29:09;98131.09;;;5.20;95.44
22580;BME280;11456;47.030;15.396;2022-11-30T09:31:36;98139.75;;;4.86;96.33
22580;BME280;11456;47.030;15.396;2022-11-30T09:34:02;98134.78;;;4.54;95.34
22580;BME280;11456;47.030;15.396;2022-11-30T09:36:28;98130.13;;;4.96;96.43
22580;BME280;11456;47.030;15.396;2022-11-30T09:38:56;98124.34;;;4.76;95.57
22580;BME280;11456;47.030;15.396;2022-11-30T09:44:10;98120.75;;;5.03;95.31
22580;BME280;11456;47.030;15.396;2022-11-30T09:46:43;98118.19;;;4.89;95.45
22580;BME280;11456;47.030;15.396;2022-11-30T09:51:45;98115.59;;;5.00;95.70
22580;BME280;11456;47.030;15.396;2022-11-30T09:54:31;98118.19;;;4.89;94.87
22580;BME280;11456;47.030;15.396;2022-11-30T09:57:02;98114.97;;;4.71;95.77
22580;BME280;11456;47.030;15.396;2022-11-30T09:59:30;98112.84;;;4.89;95.79
22580;BME280;11456;47.030;15.396;2022-11-30T10:02:08;98116.03;;;4.81;95.61
22580;BME280;11456;47.030;15.396;2022-11-30T10:04:39;98107.72;;;5.11;95.54
22580;BME280;11456;47.030;15.396;2022-11-30T10:07:20;98104.53;;;5.18;94.02
22580;BME280;11456;47.030;15.396;2022-11-30T10:10:02;98106.13;;;4.96;92.97
22580;BME280;11456;47.030;15.396;2022-11-30T10:13:17;98104.53;;;5.18;93.64
22580;BME280;11456;47.030;15.396;2022-11-30T10:18:15;98111.41;;;5.46;93.74
22580;BME280;11456;47.030;15.396;2022-11-30T10:20:57;98111.34;;;5.10;92.55
22580;BME280;11456;47.030;15.396;2022-11-30T10:25:58;98103.13;;;5.13;95.02
22580;BME280;11456;47.030;15.396;2022-11-30T10:28:36;98101.09;;;5.29;95.42
22580;BME280;11456;47.030;15.396;2022-11-30T10:31:14;98107.72;;;5.11;94.45
22580;BME280;11456;47.030;15.396;2022-11-30T10:33:47;98100.22;;;5.41;94.93
22580;BME280;11456;47.030;15.396;2022-11-30T10:36:25;98103.44;;;4.96;95.32
22580;BME280;11456;47.030;15.396;2022-11-30T10:38:55;98107.06;;;5.20;96.21
22580;BME280;11456;47.030;15.396;2022-11-30T10:41:24;98106.19;;;5.32;96.69
22580;BME280;11456;47.030;15.396;2022-11-30T10:43:55;98109.84;;;5.06;96.19
22580;BME280;11456;47.030;15.396;2022-11-30T10:46:28;98100.69;;;5.10;97.49
22580;BME280;11456;47.030;15.396;2022-11-30T10:51:25;98096.28;;;5.09;97.29
22580;BME280;11456;47.030;15.396;2022-11-30T10:53:52;98098.44;;;5.16;98.17
22580;BME280;11456;47.030;15.396;2022-11-30T10:56:19;98096.38;;;5.20;98.28
22580;BME280;11456;47.030;15.396;2022-11-30T10:58:59;98087.44;;;4.96;98.38
22580;BME280;11456;47.030;15.396;2022-11-30T11:04:18;98094.91;;;5.16;98.99
22580;BME280;11456;47.030;15.396;2022-11-30T11:07:25;98083.97;;;5.32;98.35
22580;BME280;11456;47.030;15.396;2022-11-30T11:12:00;98086.03;;;5.03;98.55
22580;BME280;11456;47.030;15.396;2022-11-30T11:14:27;98086.16;;;4.89;99.13
22580;BME280;11456;47.030;15.396;2022-11-30T11:17:01;98083.34;;;5.28;98.07
22580;BME280;11456;47.030;15.396;2022-11-30T11:19:38;98082.28;;;5.31;97.92
22580;BME280;11456;47.030;15.396;2022-11-30T11:24:32;98074.13;;;5.45;96.32
22580;BME280;11456;47.030;15.396;2022-11-30T11:26:59;98074.81;;;5.23;96.14
22580;BME280;11456;47.030;15.396;2022-11-30T11:29:27;98079.84;;;5.15;97.24
22580;BME280;11456;47.030;15.396;2022-11-30T11:34:44;98077.09;;;4.91;99.42
22580;BME280;11456;47.030;15.396;2022-11-30T11:37:24;98076.41;;;5.25;98.91
22580;BME280;11456;47.030;15.396;2022-11-30T11:39:55;98070.34;;;5.23;99.22
22580;BME280;11456;47.030;15.396;2022-11-30T11:42:21;98065.41;;;5.30;98.30
22580;BME280;11456;47.030;15.396;2022-11-30T11:44:49;98067.50;;;5.38;98.20
22580;BME280;11456;47.030;15.396;2022-11-30T11:47:28;98061.78;;;5.31;97.81
22580;BME280;11456;47.030;15.396;2022-11-30T11:52:39;98067.97;;;5.19;98.20
22580;BME280;11456;47.030;15.396;2022-11-30T11:55:16;98062.50;;;5.33;98.73
22580;BME280;11456;47.030;15.396;2022-11-30T12:00:19;98062.16;;;5.50;98.07
22580;BME280;11456;47.030;15.396;2022-11-30T12:05:47;98061.84;;;5.42;97.09
22580;BME280;11456;47.030;15.396;2022-11-30T12:18:32;98053.69;;;4.95;99.57
22580;BME280;11456;47.030;15.396;2022-11-30T12:21:12;98054.34;;;5.11;99.71
22580;BME280;11456;47.030;15.396;2022-11-30T12:26:38;98049.06;;;5.22;98.98
22580;BME280;11456;47.030;15.396;2022-11-30T12:35:10;98055.38;;;5.21;99.35
22580;BME280;11456;47.030;15.396;2022-11-30T12:37:13;98053.88;;;5.30;99.09
22580;BME280;11456;47.030;15.396;2022-11-30T12:39:55;98054.72;;;5.30;99.45
22580;BME280;11456;47.030;15.396;2022-11-30T12:42:26;98056.81;;;5.38;98.82
22580;BME280;11456;47.030;15.396;2022-11-30T12:45:03;98061.56;;;5.21;99.32
22580;BME280;11456;47.030;15.396;2022-11-30T12:47:45;98057.25;;;5.44;98.79
22580;BME280;11456;47.030;15.396;2022-11-30T12:50:20;98058.13;;;5.32;98.58
22580;BME280;11456;47.030;15.396;2022-11-30T12:55:39;98052.38;;;5.13;99.24
22580;BME280;11456;47.030;15.396;2022-11-30T12:58:13;98052.06;;;5.30;99.25
22580;BME280;11456;47.030;15.396;2022-11-30T13:01:01;98048.31;;;5.20;99.69
22580;BME280;11456;47.030;15.396;2022-11-30T13:06:00;98049.16;;;5.33;99.79
22580;BME280;11456;47.030;15.396;2022-11-30T13:11:17;98048.56;;;5.17;99.46
22580;BME280;11456;47.030;15.396;2022-11-30T13:13:49;98044.94;;;5.18;99.57
22580;BME280;11456;47.030;15.396;2022-11-30T13:16:16;98047.16;;;5.24;98.91
22580;BME280;11456;47.030;15.396;2022-11-30T13:18:44;98042.03;;;5.21;99.03
22580;BME280;11456;47.030;15.396;2022-11-30T13:24:10;98040.84;;;5.12;98.61
22580;BME280;11456;47.030;15.396;2022-11-30T13:26:54;98044.53;;;4.73;99.46
22580;BME280;11456;47.030;15.396;2022-11-30T13:32:09;98037.22;;;5.13;98.34
22580;BME280;11456;47.030;15.396;2022-11-30T13:37:41;98031.03;;;5.13;98.10
22580;BME280;11456;47.030;15.396;2022-11-30T13:40:18;98027.66;;;4.86;98.92
22580;BME280;11456;47.030;15.396;2022-11-30T13:42:46;98040.44;;;4.93;99.79
22580;BME280;11456;47.030;15.396;2022-11-30T13:45:17;98027.44;;;4.89;99.33
22580;BME280;11456;47.030;15.396;2022-11-30T13:47:51;98033.44;;;4.92;99.08
22580;BME280;11456;47.030;15.396;2022-11-30T13:50:21;98032.78;;;4.89;98.74
22580;BME280;11456;47.030;15.396;2022-11-30T13:58:03;98037.34;;;4.87;98.42
22580;BME280;11456;47.030;15.396;2022-11-30T14:05:41;98043.53;;;5.12;99.50
22580;BME280;11456;47.030;15.396;2022-11-30T14:08:09;98038.31;;;5.11;99.96
22580;BME280;11456;47.030;15.396;2022-11-30T14:10:37;98043.25;;;4.92;99.89
22580;BME280;11456;47.030;15.396;2022-11-30T14:13:24;98037.47;;;4.98;100.00
22580;BME280;11456;47.030;15.396;2022-11-30T14:15:51;98042.59;;;5.01;99.76
22580;BME280;11456;47.030;15.396;2022-11-30T14:18:20;98035.53;;;5.00;99.62
22580;BME280;11456;47.030;15.396;2022-11-30T14:23:18;98037.00;;;5.29;99.67
22580;BME280;11456;47.030;15.396;2022-11-30T14:25:47;98029.75;;;5.06;99.79
22580;BME280;11456;47.030;15.396;2022-11-30T14:28:16;98043.66;;;5.11;100.00
22580;BME280;11456;47.030;15.396;2022-11-30T14:30:43;98045.59;;;4.83;100.00
22580;BME280;11456;47.030;15.396;2022-11-30T14:33:12;98040.34;;;4.69;100.00
22580;BME280;11456;47.030;15.396;2022-11-30T14:35:45;98035.78;;;4.59;100.00
22580;BME280;11456;47.030;15.396;2022-11-30T14:38:15;98040.78;;;4.63;100.00
22580;BME280;11456;47.030;15.396;2022-11-30T14:40:51;98049.44;;;4.67;100.00
22580;BME280;11456;47.030;15.396;2022-11-30T14:43:18;98038.22;;;4.74;100.00
22580;BME280;11456;47.030;15.396;2022-11-30T14:48:30;98040.88;;;4.74;100.00
22580;BME280;11456;47.030;15.396;2022-11-30T14:50:57;98052.84;;;4.81;100.00